sensor_id;sensor_type;location;lat;lon;timestamp;pressure;altitude;pressure_sealevel;temperature;humidity
64460;BME280;50828;53.756;21.140;2022-12-19T00:03:41;101947.42;;;-5.52;69.23
64460;BME280;50828;53.756;21.140;2022-12-19T00:08:50;101949.05;;;-5.54;69.20
64460;BME280;50828;53.756;21.140;2022-12-19T00:13:59;101959.91;;;-5.56;69.29
64460;BME280;50828;53.756;21.140;2022-12-19T00:19:08;101953.27;;;-5.58;69.39
64460;BME280;50828;53.756;21.140;2022-12-19T00:24:16;101947.16;;;-5.60;69.36
64460;BME280;50828;53.756;21.140;2022-12-19T00:29:26;101938.36;;;-5.60;69.45
64460;BME280;50828;53.756;21.140;2022-12-19T00:34:35;101940.41;;;-5.61;69.42
64460;BME280;50828;53.756;21.140;2022-12-19T00:39:44;101945.26;;;-5.63;69.60
64460;BME280;50828;53.756;21.140;2022-12-19T00:44:52;101945.42;;;-5.63;69.55
64460;BME280;50828;53.756;21.140;2022-12-19T00:50:05;101949.98;;;-5.65;69.64
64460;BME280;50828;53.756;21.140;2022-12-19T00:55:13;101952.07;;;-5.64;69.66
64460;BME280;50828;53.756;21.140;2022-12-19T01:00:24;101949.39;;;-5.63;69.78
64460;BME280;50828;53.756;21.140;2022-12-19T01:05:34;101940.69;;;-5.62;69.92
64460;BME280;50828;53.756;21.140;2022-12-19T01:10:48;101935.48;;;-5.60;69.81
64460;BME280;50828;53.756;21.140;2022-12-19T01:15:57;101927.38;;;-5.58;69.90
64460;BME280;50828;53.756;21.140;2022-12-19T01:21:07;101922.44;;;-5.56;69.84
64460;BME280;50828;53.756;21.140;2022-12-19T01:26:16;101922.64;;;-5.56;69.98
64460;BME280;50828;53.756;21.140;2022-12-19T01:31:25;101915.46;;;-5.59;69.74
64460;BME280;50828;53.756;21.140;2022-12-19T01:36:34;101913.67;;;-5.60;69.65
64460;BME280;50828;53.756;21.140;2022-12-19T01:41:45;101905.30;;;-5.60;69.79
64460;BME280;50828;53.756;21.140;2022-12-19T01:46:53;101893.67;;;-5.58;69.86
64460;BME280;50828;53.756;21.140;2022-12-19T01:52:08;101890.73;;;-5.59;69.71
64460;BME280;50828;53.756;21.140;2022-12-19T01:57:28;101884.65;;;-5.60;69.70
64460;BME280;50828;53.756;21.140;2022-12-19T02:02:39;101881.65;;;-5.62;69.62
64460;BME280;50828;53.756;21.140;2022-12-19T02:07:50;101872.40;;;-5.61;69.56
64460;BME280;50828;53.756;21.140;2022-12-19T02:12:58;101872.54;;;-5.62;69.77
64460;BME280;50828;53.756;21.140;2022-12-19T02:18:14;101874.60;;;-5.62;69.78
64460;BME280;50828;53.756;21.140;2022-12-19T02:23:55;101869.31;;;-5.61;69.84
64460;BME280;50828;53.756;21.140;2022-12-19T02:29:22;101867.41;;;-5.61;69.67
64460;BME280;50828;53.756;21.140;2022-12-19T02:34:38;101854.55;;;-5.61;69.70
64460;BME280;50828;53.756;21.140;2022-12-19T02:39:54;101850.61;;;-5.61;69.69
64460;BME280;50828;53.756;21.140;2022-12-19T02:45:09;101846.48;;;-5.61;69.86
64460;BME280;50828;53.756;21.140;2022-12-19T02:50:24;101844.98;;;-5.60;69.76
64460;BME280;50828;53.756;21.140;2022-12-19T02:55:37;101841.72;;;-5.60;69.66
64460;BME280;50828;53.756;21.140;2022-12-19T03:00:55;101836.50;;;-5.61;69.64
64460;BME280;50828;53.756;21.140;2022-12-19T03:06:13;101841.41;;;-5.63;69.60
64460;BME280;50828;53.756;21.140;2022-12-19T03:11:30;101839.39;;;-5.65;69.50
64460;BME280;50828;53.756;21.140;2022-12-19T03:16:40;101827.94;;;-5.67;69.58
64460;BME280;50828;53.756;21.140;2022-12-19T03:21:51;101822.50;;;-5.70;69.61
64460;BME280;50828;53.756;21.140;2022-12-19T03:27:06;101816.73;;;-5.72;69.43
64460;BME280;50828;53.756;21.140;2022-12-19T03:32:19;101819.38;;;-5.74;69.38
64460;BME280;50828;53.756;21.140;2022-12-19T03:37:32;101820.28;;;-5.76;69.41
64460;BME280;50828;53.756;21.140;2022-12-19T03:42:43;101820.30;;;-5.79;69.29
64460;BME280;50828;53.756;21.140;2022-12-19T03:48:12;101798.36;;;-5.89;69.38
64460;BME280;50828;53.756;21.140;2022-12-19T03:53:33;101808.06;;;-5.83;69.26
64460;BME280;50828;53.756;21.140;2022-12-19T03:58:50;101802.52;;;-5.84;69.31
64460;BME280;50828;53.756;21.140;2022-12-19T04:04:01;101801.17;;;-5.87;69.17
64460;BME280;50828;53.756;21.140;2022-12-19T04:09:10;101800.20;;;-5.90;69.20
64460;BME280;50828;53.756;21.140;2022-12-19T04:14:30;101803.16;;;-5.92;69.29
64460;BME280;50828;53.756;21.140;2022-12-19T04:19:44;101799.63;;;-5.94;69.22
64460;BME280;50828;53.756;21.140;2022-12-19T04:24:56;101790.42;;;-5.96;69.17
64460;BME280;50828;53.756;21.140;2022-12-19T04:30:10;101785.72;;;-5.97;69.11
64460;BME280;50828;53.756;21.140;2022-12-19T04:35:20;101788.96;;;-6.01;69.12
64460;BME280;50828;53.756;21.140;2022-12-19T04:40:28;101789.65;;;-6.04;68.96
64460;BME280;50828;53.756;21.140;2022-12-19T04:45:42;101790.55;;;-6.06;69.10
64460;BME280;50828;53.756;21.140;2022-12-19T04:50:51;101780.80;;;-6.09;69.01
64460;BME280;50828;53.756;21.140;2022-12-19T04:56:04;101778.96;;;-6.12;69.01
64460;BME280;50828;53.756;21.140;2022-12-19T05:01:13;101777.09;;;-6.15;68.94
64460;BME280;50828;53.756;21.140;2022-12-19T05:06:22;101770.43;;;-6.17;69.04
64460;BME280;50828;53.756;21.140;2022-12-19T05:11:30;101765.20;;;-6.19;69.07
64460;BME280;50828;53.756;21.140;2022-12-19T05:16:38;101769.92;;;-6.20;69.16
64460;BME280;50828;53.756;21.140;2022-12-19T05:21:46;101770.70;;;-6.21;69.21
64460;BME280;50828;53.756;21.140;2022-12-19T05:26:55;101773.71;;;-6.23;69.13
64460;BME280;50828;53.756;21.140;2022-12-19T05:32:03;101776.63;;;-6.23;69.16
64460;BME280;50828;53.756;21.140;2022-12-19T05:37:12;101776.33;;;-6.22;69.25
64460;BME280;50828;53.756;21.140;2022-12-19T05:42:20;101779.77;;;-6.22;69.14
64460;BME280;50828;53.756;21.140;2022-12-19T05:47:29;101781.52;;;-6.22;69.32
64460;BME280;50828;53.756;21.140;2022-12-19T05:52:37;101783.11;;;-6.21;69.18
64460;BME280;50828;53.756;21.140;2022-12-19T05:57:46;101783.09;;;-6.21;69.33
64460;BME280;50828;53.756;21.140;2022-12-19T06:02:53;101782.82;;;-6.19;69.27
64460;BME280;50828;53.756;21.140;2022-12-19T06:08:02;101787.55;;;-6.18;69.15
64460;BME280;50828;53.756;21.140;2022-12-19T06:13:10;101791.97;;;-6.18;69.04
64460;BME280;50828;53.756;21.140;2022-12-19T06:18:18;101795.83;;;-6.20;68.96
64460;BME280;50828;53.756;21.140;2022-12-19T06:23:26;101800.85;;;-6.22;68.81
64460;BME280;50828;53.756;21.140;2022-12-19T06:28:35;101800.36;;;-6.25;68.95
64460;BME280;50828;53.756;21.140;2022-12-19T06:33:44;101800.02;;;-6.28;68.97
64460;BME280;50828;53.756;21.140;2022-12-19T06:38:54;101797.45;;;-6.31;68.93
64460;BME280;50828;53.756;21.140;2022-12-19T06:44:04;101791.17;;;-6.33;68.95
64460;BME280;50828;53.756;21.140;2022-12-19T06:49:14;101783.54;;;-6.34;68.90
64460;BME280;50828;53.756;21.140;2022-12-19T06:54:22;101783.11;;;-6.36;68.59
64460;BME280;50828;53.756;21.140;2022-12-19T06:59:30;101781.37;;;-6.40;68.54
64460;BME280;50828;53.756;21.140;2022-12-19T07:04:40;101782.48;;;-6.45;68.42
64460;BME280;50828;53.756;21.140;2022-12-19T07:09:50;101786.30;;;-6.50;68.35
64460;BME280;50828;53.756;21.140;2022-12-19T07:14:58;101782.30;;;-6.54;68.49
64460;BME280;50828;53.756;21.140;2022-12-19T07:20:08;101782.02;;;-6.56;68.59
64460;BME280;50828;53.756;21.140;2022-12-19T07:25:17;101776.61;;;-6.58;68.62
64460;BME280;50828;53.756;21.140;2022-12-19T07:30:25;101761.05;;;-6.60;68.63
64460;BME280;50828;53.756;21.140;2022-12-19T07:35:34;101763.45;;;-6.63;68.46
64460;BME280;50828;53.756;21.140;2022-12-19T07:40:42;101759.23;;;-6.65;68.48
64460;BME280;50828;53.756;21.140;2022-12-19T07:45:55;101759.83;;;-6.67;68.27
64460;BME280;50828;53.756;21.140;2022-12-19T07:51:06;101753.89;;;-6.69;68.35
64460;BME280;50828;53.756;21.140;2022-12-19T07:56:14;101744.33;;;-6.71;68.37
64460;BME280;50828;53.756;21.140;2022-12-19T08:01:23;101732.84;;;-6.74;68.53
64460;BME280;50828;53.756;21.140;2022-12-19T08:06:34;101728.20;;;-6.77;68.29
64460;BME280;50828;53.756;21.140;2022-12-19T08:11:47;101719.34;;;-6.80;68.25
64460;BME280;50828;53.756;21.140;2022-12-19T08:16:55;101720.74;;;-6.83;68.26
64460;BME280;50828;53.756;21.140;2022-12-19T08:22:24;101719.10;;;-6.84;68.32
64460;BME280;50828;53.756;21.140;2022-12-19T08:27:32;101707.23;;;-6.85;68.39
64460;BME280;50828;53.756;21.140;2022-12-19T08:32:40;101701.22;;;-6.86;68.37
64460;BME280;50828;53.756;21.140;2022-12-19T08:37:50;101689.62;;;-6.85;68.48
64460;BME280;50828;53.756;21.140;2022-12-19T08:42:59;101684.79;;;-6.82;68.45
64460;BME280;50828;53.756;21.140;2022-12-19T08:48:07;101689.50;;;-6.80;68.49
64460;BME280;50828;53.756;21.140;2022-12-19T08:53:16;101697.44;;;-6.76;68.53
64460;BME280;50828;53.756;21.140;2022-12-19T08:58:31;101685.55;;;-6.71;68.44
64460;BME280;50828;53.756;21.140;2022-12-19T09:03:40;101681.16;;;-6.67;68.56
64460;BME280;50828;53.756;21.140;2022-12-19T09:09:09;101667.17;;;-6.62;68.50
64460;BME280;50828;53.756;21.140;2022-12-19T09:14:18;101652.87;;;-6.58;68.48
64460;BME280;50828;53.756;21.140;2022-12-19T09:19:27;101649.69;;;-6.53;68.46
64460;BME280;50828;53.756;21.140;2022-12-19T09:24:35;101648.67;;;-6.46;68.28
64460;BME280;50828;53.756;21.140;2022-12-19T09:29:43;101639.99;;;-6.42;68.40
64460;BME280;50828;53.756;21.140;2022-12-19T09:34:52;101623.98;;;-6.36;68.31
64460;BME280;50828;53.756;21.140;2022-12-19T09:40:00;101619.46;;;-6.31;68.25
64460;BME280;50828;53.756;21.140;2022-12-19T09:45:21;101613.91;;;-6.26;68.17
64460;BME280;50828;53.756;21.140;2022-12-19T09:50:46;101600.11;;;-6.20;68.16
64460;BME280;50828;53.756;21.140;2022-12-19T09:55:58;101586.48;;;-6.16;68.12
64460;BME280;50828;53.756;21.140;2022-12-19T10:01:13;101585.39;;;-6.10;67.92
64460;BME280;50828;53.756;21.140;2022-12-19T10:24:51;101547.63;;;-5.61;67.49
64460;BME280;50828;53.756;21.140;2022-12-19T10:30:16;101532.91;;;-5.52;67.04
64460;BME280;50828;53.756;21.140;2022-12-19T10:35:31;101513.81;;;-5.60;67.05
64460;BME280;50828;53.756;21.140;2022-12-19T10:40:44;101492.80;;;-5.69;66.80
64460;BME280;50828;53.756;21.140;2022-12-19T10:45:59;101465.44;;;-5.79;66.68
64460;BME280;50828;53.756;21.140;2022-12-19T10:51:21;101457.74;;;-5.89;66.50
64460;BME280;50828;53.756;21.140;2022-12-19T10:56:31;101447.71;;;-5.98;66.79
64460;BME280;50828;53.756;21.140;2022-12-19T11:01:42;101445.61;;;-6.06;66.74
64460;BME280;50828;53.756;21.140;2022-12-19T11:07:17;101433.48;;;-6.12;66.79
64460;BME280;50828;53.756;21.140;2022-12-19T11:12:35;101424.52;;;-6.16;66.97
64460;BME280;50828;53.756;21.140;2022-12-19T11:18:11;101418.91;;;-6.16;67.09
64460;BME280;50828;53.756;21.140;2022-12-19T11:23:47;101422.80;;;-6.13;67.22
64460;BME280;50828;53.756;21.140;2022-12-19T11:29:22;101422.77;;;-6.11;67.12
64460;BME280;50828;53.756;21.140;2022-12-19T11:34:51;101417.01;;;-6.08;67.22
64460;BME280;50828;53.756;21.140;2022-12-19T11:40:12;101406.28;;;-6.04;67.04
64460;BME280;50828;53.756;21.140;2022-12-19T11:45:26;101388.67;;;-5.98;67.11
64460;BME280;50828;53.756;21.140;2022-12-19T11:50:43;101374.64;;;-5.94;67.00
64460;BME280;50828;53.756;21.140;2022-12-19T11:56:00;101365.46;;;-5.88;66.92
64460;BME280;50828;53.756;21.140;2022-12-19T12:01:30;101363.59;;;-5.84;66.88
64460;BME280;50828;53.756;21.140;2022-12-19T12:06:45;101354.74;;;-5.78;66.99
64460;BME280;50828;53.756;21.140;2022-12-19T12:11:58;101344.98;;;-5.74;66.65
64460;BME280;50828;53.756;21.140;2022-12-19T12:17:48;101326.02;;;-5.72;66.81
64460;BME280;50828;53.756;21.140;2022-12-19T12:23:24;101312.69;;;-5.67;66.59
64460;BME280;50828;53.756;21.140;2022-12-19T12:29:06;101302.23;;;-5.63;66.65
64460;BME280;50828;53.756;21.140;2022-12-19T12:34:56;101297.82;;;-5.58;66.44
64460;BME280;50828;53.756;21.140;2022-12-19T12:40:48;101288.20;;;-5.55;66.58
64460;BME280;50828;53.756;21.140;2022-12-19T12:46:01;101282.04;;;-5.54;66.42
64460;BME280;50828;53.756;21.140;2022-12-19T12:51:10;101270.75;;;-5.49;66.23
64460;BME280;50828;53.756;21.140;2022-12-19T12:56:19;101261.04;;;-5.47;66.17
64460;BME280;50828;53.756;21.140;2022-12-19T13:01:36;101235.63;;;-5.47;65.97
64460;BME280;50828;53.756;21.140;2022-12-19T13:07:13;101225.16;;;-5.47;65.96
64460;BME280;50828;53.756;21.140;2022-12-19T13:12:26;101211.57;;;-5.47;65.93
64460;BME280;50828;53.756;21.140;2022-12-19T13:18:33;101205.50;;;-5.49;65.82
64460;BME280;50828;53.756;21.140;2022-12-19T13:23:50;101203.84;;;-5.52;65.50
64460;BME280;50828;53.756;21.140;2022-12-19T13:34:52;101182.84;;;-5.57;65.48
64460;BME280;50828;53.756;21.140;2022-12-19T13:40:30;101172.83;;;-5.58;65.57
64460;BME280;50828;53.756;21.140;2022-12-19T13:45:39;101159.21;;;-5.60;65.50
64460;BME280;50828;53.756;21.140;2022-12-19T13:50:48;101156.59;;;-5.61;65.46
64460;BME280;50828;53.756;21.140;2022-12-19T13:56:01;101142.95;;;-5.62;65.37
64460;BME280;50828;53.756;21.140;2022-12-19T14:01:17;101153.41;;;-5.63;65.26
64460;BME280;50828;53.756;21.140;2022-12-19T14:06:28;101148.85;;;-5.65;65.20
64460;BME280;50828;53.756;21.140;2022-12-19T14:11:41;101139.69;;;-5.67;65.25
64460;BME280;50828;53.756;21.140;2022-12-19T14:17:14;101121.17;;;-5.70;65.01
64460;BME280;50828;53.756;21.140;2022-12-19T14:22:21;101109.42;;;-5.73;65.01
64460;BME280;50828;53.756;21.140;2022-12-19T14:27:37;101097.83;;;-5.75;64.89
64460;BME280;50828;53.756;21.140;2022-12-19T14:33:10;101094.38;;;-5.79;65.02
64460;BME280;50828;53.756;21.140;2022-12-19T14:38:43;101085.88;;;-5.82;64.99
64460;BME280;50828;53.756;21.140;2022-12-19T14:44:11;101077.77;;;-5.83;64.86
64460;BME280;50828;53.756;21.140;2022-12-19T14:49:39;101072.90;;;-5.84;64.94
64460;BME280;50828;53.756;21.140;2022-12-19T14:55:29;101069.91;;;-5.86;64.89
64460;BME280;50828;53.756;21.140;2022-12-19T15:00:58;101064.20;;;-5.87;64.80
64460;BME280;50828;53.756;21.140;2022-12-19T15:06:17;101051.80;;;-5.89;64.86
64460;BME280;50828;53.756;21.140;2022-12-19T15:11:48;101040.15;;;-5.88;64.88
64460;BME280;50828;53.756;21.140;2022-12-19T15:17:45;101031.39;;;-5.88;65.02
64460;BME280;50828;53.756;21.140;2022-12-19T15:22:53;101028.38;;;-5.86;64.96
64460;BME280;50828;53.756;21.140;2022-12-19T15:28:04;101025.98;;;-5.86;64.87
64460;BME280;50828;53.756;21.140;2022-12-19T15:33:15;101031.55;;;-5.84;64.88
64460;BME280;50828;53.756;21.140;2022-12-19T15:38:23;101038.80;;;-5.83;64.95
64460;BME280;50828;53.756;21.140;2022-12-19T15:43:35;101020.84;;;-5.82;64.82
64460;BME280;50828;53.756;21.140;2022-12-19T15:49:03;101004.64;;;-5.79;64.91
64460;BME280;50828;53.756;21.140;2022-12-19T15:54:11;100991.84;;;-5.78;64.99
64460;BME280;50828;53.756;21.140;2022-12-19T15:59:42;100980.13;;;-5.75;64.90
64460;BME280;50828;53.756;21.140;2022-12-19T16:04:51;100962.56;;;-5.71;65.13
64460;BME280;50828;53.756;21.140;2022-12-19T16:10:10;100951.25;;;-5.66;65.12
64460;BME280;50828;53.756;21.140;2022-12-19T16:15:21;100932.32;;;-5.64;65.17
64460;BME280;50828;53.756;21.140;2022-12-19T16:20:29;100927.59;;;-5.57;65.14
64460;BME280;50828;53.756;21.140;2022-12-19T16:25:39;100914.27;;;-5.50;65.07
64460;BME280;50828;53.756;21.140;2022-12-19T16:30:48;100907.45;;;-5.44;65.14
64460;BME280;50828;53.756;21.140;2022-12-19T16:35:56;100905.11;;;-5.38;65.06
64460;BME280;50828;53.756;21.140;2022-12-19T16:41:16;100902.44;;;-5.32;65.01
64460;BME280;50828;53.756;21.140;2022-12-19T16:46:25;100904.17;;;-5.27;64.98
64460;BME280;50828;53.756;21.140;2022-12-19T16:51:37;100896.52;;;-5.20;65.02
64460;BME280;50828;53.756;21.140;2022-12-19T16:56:47;100882.89;;;-5.17;64.95
64460;BME280;50828;53.756;21.140;2022-12-19T17:01:56;100890.80;;;-5.07;64.95
64460;BME280;50828;53.756;21.140;2022-12-19T17:07:09;100880.06;;;-4.99;64.87
64460;BME280;50828;53.756;21.140;2022-12-19T17:12:24;100865.31;;;-4.93;64.77
64460;BME280;50828;53.756;21.140;2022-12-19T17:17:33;100859.82;;;-4.88;64.85
64460;BME280;50828;53.756;21.140;2022-12-19T17:22:41;100854.95;;;-4.85;64.82
64460;BME280;50828;53.756;21.140;2022-12-19T17:27:50;100839.84;;;-4.80;64.73
64460;BME280;50828;53.756;21.140;2022-12-19T17:32:59;100833.96;;;-4.75;64.83
64460;BME280;50828;53.756;21.140;2022-12-19T17:38:12;100834.84;;;-4.69;64.86
64460;BME280;50828;53.756;21.140;2022-12-19T17:43:18;100823.42;;;-4.67;64.79
64460;BME280;50828;53.756;21.140;2022-12-19T17:48:29;100830.36;;;-4.60;64.83
64460;BME280;50828;53.756;21.140;2022-12-19T17:53:38;100835.09;;;-4.52;64.76
64460;BME280;50828;53.756;21.140;2022-12-19T17:58:46;100829.30;;;-4.45;64.78
64460;BME280;50828;53.756;21.140;2022-12-19T18:03:55;100812.02;;;-4.36;64.76
64460;BME280;50828;53.756;21.140;2022-12-19T18:09:04;100803.00;;;-4.28;64.70
64460;BME280;50828;53.756;21.140;2022-12-19T18:14:13;100795.62;;;-4.22;64.57
64460;BME280;50828;53.756;21.140;2022-12-19T18:19:25;100793.92;;;-4.15;64.39
64460;BME280;50828;53.756;21.140;2022-12-19T18:24:37;100782.35;;;-4.11;64.42
64460;BME280;50828;53.756;21.140;2022-12-19T18:29:45;100780.05;;;-4.07;64.39
64460;BME280;50828;53.756;21.140;2022-12-19T18:34:53;100769.81;;;-4.04;64.30
64460;BME280;50828;53.756;21.140;2022-12-19T18:40:04;100755.74;;;-4.03;64.29
64460;BME280;50828;53.756;21.140;2022-12-19T18:45:17;100752.77;;;-3.99;64.35
64460;BME280;50828;53.756;21.140;2022-12-19T18:50:27;100736.14;;;-3.96;64.35
64460;BME280;50828;53.756;21.140;2022-12-19T18:55:36;100734.91;;;-3.91;64.34
64460;BME280;50828;53.756;21.140;2022-12-19T19:00:44;100725.86;;;-3.89;64.11
64460;BME280;50828;53.756;21.140;2022-12-19T19:05:59;100720.02;;;-3.82;64.14
64460;BME280;50828;53.756;21.140;2022-12-19T19:11:07;100709.92;;;-3.80;64.18
64460;BME280;50828;53.756;21.140;2022-12-19T19:16:17;100696.61;;;-3.76;64.16
64460;BME280;50828;53.756;21.140;2022-12-19T19:21:27;100690.45;;;-3.74;64.13
64460;BME280;50828;53.756;21.140;2022-12-19T19:26:36;100676.09;;;-3.71;63.96
64460;BME280;50828;53.756;21.140;2022-12-19T19:31:45;100668.61;;;-3.67;64.06
64460;BME280;50828;53.756;21.140;2022-12-19T19:36:56;100651.16;;;-3.62;64.04
64460;BME280;50828;53.756;21.140;2022-12-19T19:42:05;100655.52;;;-3.60;64.02
64460;BME280;50828;53.756;21.140;2022-12-19T19:47:12;100649.91;;;-3.58;63.95
64460;BME280;50828;53.756;21.140;2022-12-19T19:52:21;100633.75;;;-3.56;63.94
64460;BME280;50828;53.756;21.140;2022-12-19T19:57:29;100623.10;;;-3.55;64.03
64460;BME280;50828;53.756;21.140;2022-12-19T20:02:36;100609.11;;;-3.50;63.98
64460;BME280;50828;53.756;21.140;2022-12-19T20:07:45;100602.64;;;-3.48;63.98
64460;BME280;50828;53.756;21.140;2022-12-19T20:12:53;100596.52;;;-3.44;63.99
64460;BME280;50828;53.756;21.140;2022-12-19T20:18:01;100590.90;;;-3.41;64.01
64460;BME280;50828;53.756;21.140;2022-12-19T20:23:08;100579.45;;;-3.38;64.05
64460;BME280;50828;53.756;21.140;2022-12-19T20:28:16;100564.36;;;-3.35;64.01
64460;BME280;50828;53.756;21.140;2022-12-19T20:33:24;100554.66;;;-3.30;64.27
64460;BME280;50828;53.756;21.140;2022-12-19T20:43:39;100547.27;;;-3.22;64.15
64460;BME280;50828;53.756;21.140;2022-12-19T20:48:48;100537.02;;;-3.18;64.20
64460;BME280;50828;53.756;21.140;2022-12-19T20:53:56;100501.59;;;-3.15;64.24
64460;BME280;50828;53.756;21.140;2022-12-19T20:59:04;100496.20;;;-3.09;64.12
64460;BME280;50828;53.756;21.140;2022-12-19T21:04:12;100494.02;;;-3.06;64.16
64460;BME280;50828;53.756;21.140;2022-12-19T21:09:20;100487.52;;;-3.04;64.08
64460;BME280;50828;53.756;21.140;2022-12-19T21:14:28;100494.50;;;-3.00;64.28
64460;BME280;50828;53.756;21.140;2022-12-19T21:19:36;100486.82;;;-2.95;64.20
64460;BME280;50828;53.756;21.140;2022-12-19T21:24:44;100489.14;;;-2.92;64.14
64460;BME280;50828;53.756;21.140;2022-12-19T21:29:52;100484.73;;;-2.88;64.29
64460;BME280;50828;53.756;21.140;2022-12-19T21:35:00;100463.83;;;-2.82;64.23
64460;BME280;50828;53.756;21.140;2022-12-19T21:40:10;100463.73;;;-2.78;64.38
64460;BME280;50828;53.756;21.140;2022-12-19T21:45:18;100459.70;;;-2.73;64.37
64460;BME280;50828;53.756;21.140;2022-12-19T21:50:26;100460.48;;;-2.68;64.35
64460;BME280;50828;53.756;21.140;2022-12-19T21:55:34;100454.33;;;-2.65;64.45
64460;BME280;50828;53.756;21.140;2022-12-19T22:00:42;100448.59;;;-2.59;64.37
64460;BME280;50828;53.756;21.140;2022-12-19T22:05:50;100435.91;;;-2.54;64.29
64460;BME280;50828;53.756;21.140;2022-12-19T22:10:58;100428.41;;;-2.49;64.24
64460;BME280;50828;53.756;21.140;2022-12-19T22:16:08;100419.52;;;-2.44;64.29
64460;BME280;50828;53.756;21.140;2022-12-19T22:21:16;100409.92;;;-2.40;64.42
64460;BME280;50828;53.756;21.140;2022-12-19T22:26:25;100401.70;;;-2.37;64.20
64460;BME280;50828;53.756;21.140;2022-12-19T22:31:34;100389.36;;;-2.32;64.33
64460;BME280;50828;53.756;21.140;2022-12-19T22:36:43;100376.66;;;-2.29;64.57
64460;BME280;50828;53.756;21.140;2022-12-19T22:41:51;100369.29;;;-2.25;64.56
64460;BME280;50828;53.756;21.140;2022-12-19T22:46:59;100366.23;;;-2.23;64.71
64460;BME280;50828;53.756;21.140;2022-12-19T22:52:07;100357.96;;;-2.21;64.76
64460;BME280;50828;53.756;21.140;2022-12-19T22:57:16;100343.64;;;-2.20;64.86
64460;BME280;50828;53.756;21.140;2022-12-19T23:02:24;100338.88;;;-2.17;64.99
64460;BME280;50828;53.756;21.140;2022-12-19T23:07:32;100334.41;;;-2.15;65.15
64460;BME280;50828;53.756;21.140;2022-12-19T23:12:40;100317.69;;;-2.14;65.29
64460;BME280;50828;53.756;21.140;2022-12-19T23:17:48;100313.96;;;-2.10;65.63
64460;BME280;50828;53.756;21.140;2022-12-19T23:22:56;100315.52;;;-2.09;65.61
64460;BME280;50828;53.756;21.140;2022-12-19T23:28:05;100306.95;;;-2.05;65.97
64460;BME280;50828;53.756;21.140;2022-12-19T23:33:12;100297.85;;;-2.01;65.85
64460;BME280;50828;53.756;21.140;2022-12-19T23:38:20;100293.06;;;-1.98;65.96
64460;BME280;50828;53.756;21.140;2022-12-19T23:43:28;100283.46;;;-1.93;66.11
64460;BME280;50828;53.756;21.140;2022-12-19T23:48:36;100279.71;;;-1.89;66.32
64460;BME280;50828;53.756;21.140;2022-12-19T23:53:44;100273.75;;;-1.83;66.39
64460;BME280;50828;53.756;21.140;2022-12-19T23:58:54;100262.77;;;-1.77;66.70
